Time;durP1;ratioP1;P1;durP2;ratioP2;P2;SDS_P1;SDS_P2;PMS_P1;PMS_P2;Temp;Humidity;BMP_temperature;BMP_pressure;BME280_temperature;BME280_humidity;BME280_pressure;Samples;Min_cycle;Max_cycle;Signal;HPM_P1;HPM_P2
2022/11/22 00:00:35;;;;;;;0.93;0.63;;;5.50;99.90;;;;;;5056033;28;20021;-63
2022/11/22 00:03:01;;;;;;;1.52;0.50;;;5.40;99.90;;;;;;5043827;28;20127;-63
2022/11/22 00:05:26;;;;;;;4.53;1.10;;;5.30;99.90;;;;;;5061103;28;20107;-62
2022/11/22 00:07:52;;;;;;;7.75;0.98;;;5.30;99.90;;;;;;5060317;28;20033;-62
2022/11/22 00:10:18;;;;;;;3.00;0.45;;;5.30;99.90;;;;;;5057535;28;20059;-63
2022/11/22 00:12:44;;;;;;;2.85;0.60;;;5.30;99.90;;;;;;5052234;28;20107;-62
2022/11/22 00:15:10;;;;;;;7.43;0.50;;;5.40;99.90;;;;;;5048163;28;20477;-62
2022/11/22 00:17:36;;;;;;;3.58;0.98;;;5.30;99.90;;;;;;5054995;28;20053;-62
2022/11/22 00:20:03;;;;;;;2.88;0.35;;;5.30;99.90;;;;;;5051003;28;20135;-62
2022/11/22 00:22:31;;;;;;;6.55;0.60;;;5.30;99.90;;;;;;5060631;28;20044;-62
2022/11/22 00:24:57;;;;;;;2.47;0.43;;;5.20;99.90;;;;;;5057276;28;20546;-62
2022/11/22 00:27:23;;;;;;;1.63;0.50;;;5.20;99.90;;;;;;5051742;28;20024;-62
2022/11/22 00:29:48;;;;;;;7.25;0.43;;;5.10;99.90;;;;;;5057151;28;20388;-63
2022/11/22 00:32:15;;;;;;;1.05;0.25;;;5.30;99.90;;;;;;5065414;28;20040;-62
2022/11/22 00:34:40;;;;;;;5.68;0.65;;;5.30;99.90;;;;;;5060539;28;20025;-62
2022/11/22 00:37:06;;;;;;;3.88;0.40;;;5.20;99.90;;;;;;5052446;28;20446;-62
2022/11/22 00:39:32;;;;;;;8.10;0.55;;;5.10;99.90;;;;;;5060377;28;20028;-63
2022/11/22 00:41:58;;;;;;;5.25;0.68;;;5.30;99.90;;;;;;5056291;28;20487;-62
2022/11/22 00:44:23;;;;;;;2.47;0.30;;;5.30;99.90;;;;;;5055813;28;20464;-62
2022/11/22 00:46:49;;;;;;;8.55;0.68;;;5.30;99.90;;;;;;5058316;28;20120;-62
2022/11/22 00:49:15;;;;;;;2.40;0.40;;;5.40;99.90;;;;;;5057998;28;20108;-62
2022/11/22 00:51:41;;;;;;;5.13;0.40;;;5.40;99.90;;;;;;5059453;28;20078;-62
2022/11/22 00:54:07;;;;;;;0.80;0.38;;;5.40;99.90;;;;;;5057328;28;20428;-62
2022/11/22 00:56:33;;;;;;;2.38;0.68;;;5.40;99.90;;;;;;5054490;28;20029;-62
2022/11/22 00:58:59;;;;;;;0.82;0.30;;;5.30;99.90;;;;;;5049874;28;20569;-63
2022/11/22 01:01:24;;;;;;;4.57;0.60;;;5.30;99.90;;;;;;5054080;28;20388;-62
2022/11/22 01:03:50;;;;;;;3.20;0.63;;;5.30;99.90;;;;;;5055256;28;20029;-62
2022/11/22 01:06:16;;;;;;;3.97;0.50;;;5.30;99.90;;;;;;5055231;28;20427;-62
2022/11/22 01:08:42;;;;;;;2.85;0.65;;;5.20;99.90;;;;;;5059486;28;20025;-62
2022/11/22 01:11:08;;;;;;;4.00;0.80;;;5.30;99.90;;;;;;5056935;28;20032;-63
2022/11/22 01:13:34;;;;;;;6.32;0.40;;;5.10;99.90;;;;;;5058149;28;20139;-62
2022/11/22 01:16:06;;;;;;;1.88;0.52;;;5.00;99.90;;;;;;5045822;28;20049;-62
2022/11/22 01:18:32;;;;;;;2.85;0.40;;;5.00;99.90;;;;;;5060771;28;20040;-62
2022/11/22 01:20:58;;;;;;;3.85;0.50;;;4.90;99.90;;;;;;5055256;28;20183;-62
2022/11/22 01:23:24;;;;;;;5.68;0.43;;;5.20;99.90;;;;;;5052259;28;20116;-62
2022/11/22 01:25:50;;;;;;;1.80;0.28;;;5.10;99.90;;;;;;5057744;28;20021;-62
2022/11/22 01:28:16;;;;;;;1.45;0.63;;;5.00;99.90;;;;;;5062469;28;20076;-63
2022/11/22 01:30:42;;;;;;;1.33;0.35;;;5.10;99.90;;;;;;5057739;28;20472;-62
2022/11/22 01:33:08;;;;;;;2.20;0.75;;;5.00;99.90;;;;;;5056265;28;20110;-62
2022/11/22 01:35:34;;;;;;;1.17;0.32;;;5.00;99.90;;;;;;5065006;28;20383;-62
2022/11/22 01:38:00;;;;;;;7.65;0.75;;;4.90;99.90;;;;;;5055801;28;20506;-62
2022/11/22 01:40:26;;;;;;;3.70;0.50;;;4.90;99.90;;;;;;5058641;28;20029;-62
2022/11/22 01:42:55;;;;;;;2.10;0.50;;;4.80;99.90;;;;;;5056678;28;20594;-62
2022/11/22 01:45:42;;;;;;;1.80;0.30;;;4.80;99.90;;;;;;5059607;28;20024;-62
2022/11/22 01:48:10;;;;;;;3.45;0.60;;;4.80;99.90;;;;;;5057193;28;20511;-62
2022/11/22 01:50:38;;;;;;;3.47;0.50;;;4.90;99.90;;;;;;5052516;28;20099;-62
2022/11/22 01:53:14;;;;;;;3.50;0.40;;;4.80;99.90;;;;;;5054264;28;20028;-63
2022/11/22 01:55:41;;;;;;;1.55;0.30;;;5.00;99.90;;;;;;5082666;28;20115;-62
2022/11/22 01:58:09;;;;;;;3.97;0.70;;;4.90;99.90;;;;;;5051324;28;20108;-62
2022/11/22 02:00:36;;;;;;;3.58;0.40;;;4.80;99.90;;;;;;5051722;28;20124;-62
2022/11/22 02:03:06;;;;;;;3.05;0.40;;;4.80;99.90;;;;;;5048792;28;20463;-62
2022/11/22 02:05:33;;;;;;;4.28;0.77;;;4.80;99.90;;;;;;5060600;28;20047;-62
2022/11/22 02:08:17;;;;;;;4.65;1.30;;;4.80;99.90;;;;;;5044730;28;20429;-62
2022/11/22 02:10:46;;;;;;;2.78;0.50;;;5.00;99.90;;;;;;5050083;28;20025;-62
2022/11/22 02:13:13;;;;;;;5.07;0.63;;;5.00;99.90;;;;;;5062044;28;20020;-62
2022/11/22 02:15:41;;;;;;;3.92;0.52;;;5.00;99.90;;;;;;5055863;28;20025;-62
2022/11/22 02:18:07;;;;;;;4.72;1.02;;;5.10;99.90;;;;;;5049155;28;20028;-62
2022/11/22 02:20:33;;;;;;;4.53;0.55;;;5.00;99.90;;;;;;5046068;28;20483;-62
2022/11/22 02:23:24;;;;;;;2.45;0.40;;;5.10;99.90;;;;;;5057722;28;20047;-62
2022/11/22 02:25:59;;;;;;;3.28;0.70;;;4.90;99.90;;;;;;5056350;28;20384;-62
2022/11/22 02:28:27;;;;;;;1.75;0.43;;;4.80;99.90;;;;;;5048093;28;20031;-62
2022/11/22 02:30:53;;;;;;;5.05;0.50;;;4.70;99.90;;;;;;5055838;28;20033;-62
2022/11/22 02:33:19;;;;;;;2.30;1.02;;;4.80;99.90;;;;;;5048125;28;20147;-62
2022/11/22 02:35:45;;;;;;;2.58;0.22;;;4.80;99.90;;;;;;5048900;28;20111;-62
2022/11/22 02:38:27;;;;;;;4.68;0.40;;;4.70;99.90;;;;;;5047841;28;20439;-62
2022/11/22 02:41:05;;;;;;;6.20;0.40;;;4.80;99.90;;;;;;5056200;28;20025;-62
2022/11/22 02:43:40;;;;;;;5.07;0.60;;;4.70;99.90;;;;;;5056378;28;20266;-62
2022/11/22 02:46:12;;;;;;;3.35;0.30;;;4.80;99.90;;;;;;5057629;28;20055;-62
2022/11/22 02:48:42;;;;;;;1.35;0.35;;;4.80;99.90;;;;;;5058955;28;20021;-62
2022/11/22 02:51:08;;;;;;;2.30;0.30;;;4.70;99.90;;;;;;5060236;28;20043;-63
2022/11/22 02:53:34;;;;;;;1.90;0.20;;;4.90;99.90;;;;;;5057874;28;20036;-62
2022/11/22 02:56:00;;;;;;;1.17;0.70;;;4.90;99.90;;;;;;5053135;28;20025;-63
2022/11/22 02:58:26;;;;;;;6.75;0.60;;;4.90;99.90;;;;;;5049563;28;20024;-62
2022/11/22 03:00:52;;;;;;;3.40;0.45;;;4.80;99.90;;;;;;5055016;28;20369;-62
2022/11/22 03:03:18;;;;;;;3.90;0.50;;;4.80;99.90;;;;;;5057274;28;20040;-62
2022/11/22 03:05:43;;;;;;;5.15;0.40;;;4.80;99.90;;;;;;5040238;28;20028;-62
2022/11/22 03:08:09;;;;;;;5.03;0.40;;;4.80;99.90;;;;;;5055096;28;20032;-62
2022/11/22 03:10:35;;;;;;;5.38;0.88;;;4.80;99.90;;;;;;5053048;28;20399;-62
2022/11/22 03:13:01;;;;;;;3.03;0.57;;;4.80;99.90;;;;;;5049946;28;20529;-62
2022/11/22 03:15:26;;;;;;;1.65;0.65;;;4.70;99.90;;;;;;5053936;28;20055;-62
2022/11/22 03:17:59;;;;;;;2.03;0.30;;;4.70;99.90;;;;;;5044072;28;20032;-63
2022/11/22 03:20:26;;;;;;;0.80;0.40;;;4.70;99.90;;;;;;5049365;28;20480;-63
2022/11/22 03:22:52;;;;;;;2.92;0.30;;;4.70;99.90;;;;;;5050721;28;20083;-62
2022/11/22 03:25:18;;;;;;;3.95;1.02;;;4.60;99.90;;;;;;5054341;28;20423;-62
2022/11/22 03:27:43;;;;;;;2.40;0.38;;;4.50;99.90;;;;;;5052642;28;20074;-62
2022/11/22 03:30:10;;;;;;;2.03;0.30;;;4.50;99.90;;;;;;5052418;28;20420;-62
2022/11/22 03:32:35;;;;;;;1.60;0.30;;;4.40;99.90;;;;;;5052673;28;20028;-62
2022/11/22 03:35:01;;;;;;;2.20;0.35;;;4.30;99.90;;;;;;5059390;28;20020;-62
2022/11/22 03:37:27;;;;;;;3.97;0.30;;;4.30;99.90;;;;;;5046425;28;20059;-62
2022/11/22 03:39:53;;;;;;;4.70;0.38;;;4.10;99.90;;;;;;5054367;28;20107;-62
2022/11/22 03:42:19;;;;;;;1.45;0.20;;;4.20;99.90;;;;;;5055448;28;20033;-62
2022/11/22 03:44:44;;;;;;;5.88;0.35;;;4.20;99.90;;;;;;5054584;28;20022;-62
2022/11/22 03:47:10;;;;;;;3.05;0.38;;;4.20;99.90;;;;;;5055194;28;20040;-62
2022/11/22 03:49:36;;;;;;;2.85;0.57;;;4.20;99.90;;;;;;5052264;28;20040;-62
2022/11/22 03:52:02;;;;;;;1.58;0.28;;;4.10;99.90;;;;;;5045103;28;20071;-62
2022/11/22 03:54:28;;;;;;;2.00;0.32;;;4.10;99.90;;;;;;5055534;28;20066;-62
2022/11/22 03:56:53;;;;;;;1.60;0.30;;;4.20;99.90;;;;;;5055674;28;20111;-62
2022/11/22 03:59:19;;;;;;;1.95;0.40;;;4.30;99.90;;;;;;5053432;28;20029;-62
2022/11/22 04:01:45;;;;;;;6.90;1.38;;;4.20;99.90;;;;;;5046317;28;20051;-62
2022/11/22 04:04:10;;;;;;;2.05;0.38;;;4.20;99.90;;;;;;5053518;28;20025;-62
2022/11/22 04:06:37;;;;;;;7.18;1.05;;;4.40;99.90;;;;;;5053529;28;20036;-62
2022/11/22 04:09:03;;;;;;;1.65;0.30;;;4.40;99.90;;;;;;5052110;28;20020;-62
2022/11/22 04:11:29;;;;;;;3.85;0.70;;;4.40;99.90;;;;;;5060250;28;20029;-62
2022/11/22 04:16:40;;;;;;;3.08;0.43;;;4.30;99.90;;;;;;5060843;28;20506;-62
2022/11/22 04:19:06;;;;;;;1.13;0.30;;;4.30;99.90;;;;;;5053706;28;20032;-62
2022/11/22 04:21:32;;;;;;;3.85;0.75;;;4.20;99.90;;;;;;5051269;28;20040;-62
2022/11/22 04:26:43;;;;;;;4.32;0.52;;;4.30;99.90;;;;;;5053780;28;20230;-62
2022/11/22 04:29:09;;;;;;;2.63;0.52;;;4.20;99.90;;;;;;5058780;28;20531;-62
2022/11/22 04:34:19;;;;;;;2.40;0.57;;;4.40;99.90;;;;;;5067847;28;20384;-63
2022/11/22 04:36:44;;;;;;;2.55;0.63;;;4.30;99.90;;;;;;5064867;28;20413;-63
2022/11/22 04:39:10;;;;;;;3.25;0.20;;;4.30;99.90;;;;;;5058818;28;20050;-62
2022/11/22 04:41:36;;;;;;;1.38;0.47;;;4.10;99.90;;;;;;5067891;28;20087;-62
2022/11/22 04:46:46;;;;;;;3.75;0.40;;;4.00;99.90;;;;;;5058436;28;20078;-62
2022/11/22 04:49:12;;;;;;;1.48;0.40;;;4.10;99.90;;;;;;5064360;28;20032;-62
2022/11/22 04:54:22;;;;;;;3.83;0.40;;;4.10;99.90;;;;;;5053460;28;20035;-62
2022/11/22 04:56:48;;;;;;;5.53;0.35;;;4.20;99.90;;;;;;5055346;28;20024;-62
2022/11/22 04:59:13;;;;;;;3.40;0.45;;;4.10;99.90;;;;;;5057650;28;20403;-62
2022/11/22 05:01:39;;;;;;;0.57;0.30;;;4.00;99.90;;;;;;5057594;28;20421;-62
2022/11/22 05:04:05;;;;;;;3.50;0.40;;;3.90;99.90;;;;;;5056227;28;20021;-62
2022/11/22 05:06:30;;;;;;;7.07;0.77;;;3.90;99.90;;;;;;5049070;28;20025;-62
2022/11/22 05:08:56;;;;;;;2.22;1.00;;;3.90;99.90;;;;;;5060513;28;20021;-62
2022/11/22 05:11:22;;;;;;;2.38;0.50;;;3.90;99.90;;;;;;5055176;28;20025;-62
2022/11/22 05:13:48;;;;;;;4.82;0.85;;;4.10;99.90;;;;;;5058712;28;20075;-59
2022/11/22 05:16:14;;;;;;;1.95;0.30;;;4.20;99.90;;;;;;5057857;28;20045;-63
2022/11/22 05:18:41;;;;;;;0.85;0.60;;;4.20;99.90;;;;;;5065541;28;20494;-63
2022/11/22 05:21:09;;;;;;;4.38;0.30;;;4.30;99.90;;;;;;5053078;28;20017;-63
2022/11/22 05:23:54;;;;;;;8.50;0.50;;;4.40;99.90;;;;;;5066191;28;20032;-64
2022/11/22 05:26:24;;;;;;;4.22;0.20;;;4.40;99.90;;;;;;5054732;28;20086;-63
2022/11/22 05:28:50;;;;;;;2.13;0.47;;;4.50;99.90;;;;;;5065941;28;20099;-63
2022/11/22 05:31:22;;;;;;;5.28;0.40;;;4.40;99.90;;;;;;5056439;28;20104;-60
2022/11/22 05:33:49;;;;;;;1.57;0.20;;;4.30;99.90;;;;;;5057835;28;20534;-63
2022/11/22 05:36:15;;;;;;;4.55;0.50;;;4.20;99.90;;;;;;5054350;28;20420;-63
2022/11/22 05:38:41;;;;;;;1.80;0.38;;;4.30;99.90;;;;;;5068376;28;20027;-63
2022/11/22 05:41:12;;;;;;;3.78;0.30;;;4.20;99.90;;;;;;5063365;28;20032;-63
2022/11/22 05:43:38;;;;;;;3.22;0.43;;;4.20;99.90;;;;;;5046486;28;20035;-62
2022/11/22 05:46:13;;;;;;;5.60;0.63;;;4.20;99.90;;;;;;5059635;28;20495;-62
2022/11/22 05:48:43;;;;;;;4.15;0.32;;;4.30;99.90;;;;;;5061927;28;20059;-63
2022/11/22 05:51:11;;;;;;;4.55;0.68;;;4.40;99.90;;;;;;5062719;28;20024;-62
2022/11/22 05:53:37;;;;;;;5.05;0.60;;;4.50;99.90;;;;;;5064497;28;20033;-62
2022/11/22 05:56:05;;;;;;;2.30;0.30;;;4.60;99.90;;;;;;5059006;28;20494;-63
2022/11/22 05:58:32;;;;;;;1.52;0.40;;;4.60;99.90;;;;;;5050456;28;20558;-62
2022/11/22 06:01:06;;;;;;;4.45;0.40;;;4.80;99.90;;;;;;5047410;28;20405;-63
2022/11/22 06:03:32;;;;;;;7.90;0.88;;;4.80;99.90;;;;;;5054446;28;20526;-62
2022/11/22 06:05:58;;;;;;;3.28;0.40;;;4.90;99.90;;;;;;5061282;28;20037;-63
2022/11/22 06:08:24;;;;;;;3.65;0.60;;;5.00;99.90;;;;;;5052184;28;20036;-63
2022/11/22 06:10:49;;;;;;;4.47;0.73;;;5.00;99.90;;;;;;5051858;28;20021;-62
2022/11/22 06:13:15;;;;;;;4.82;0.60;;;5.00;99.90;;;;;;5050588;28;20029;-62
2022/11/22 06:15:41;;;;;;;2.88;0.55;;;5.20;99.90;;;;;;5048369;28;20029;-62
2022/11/22 06:18:07;;;;;;;1.73;0.40;;;5.10;99.90;;;;;;5060794;28;20067;-62
2022/11/22 06:20:32;;;;;;;3.25;0.50;;;5.00;99.90;;;;;;5049369;28;20052;-63
2022/11/22 06:22:59;;;;;;;3.20;0.60;;;4.90;99.90;;;;;;5047759;28;20040;-63
2022/11/22 06:25:25;;;;;;;1.58;0.43;;;4.80;99.90;;;;;;5054632;28;20506;-62
2022/11/22 06:27:50;;;;;;;1.48;0.32;;;4.90;99.90;;;;;;5053629;28;20017;-62
2022/11/22 06:30:16;;;;;;;1.80;0.17;;;4.90;99.90;;;;;;5059006;28;20468;-62
2022/11/22 06:32:42;;;;;;;2.00;0.32;;;5.00;99.90;;;;;;5056333;28;20067;-62
2022/11/22 06:35:08;;;;;;;3.05;0.93;;;5.00;99.90;;;;;;5051375;28;20471;-62
2022/11/22 06:37:34;;;;;;;7.60;0.70;;;4.90;99.90;;;;;;5053590;28;20017;-62
2022/11/22 06:40:00;;;;;;;4.15;1.23;;;4.90;99.90;;;;;;5052751;28;20508;-65
2022/11/22 06:42:26;;;;;;;3.75;0.98;;;5.00;99.90;;;;;;5054444;28;20480;-63
2022/11/22 06:44:52;;;;;;;2.25;0.30;;;5.00;99.90;;;;;;5047982;28;20591;-65
2022/11/22 06:47:18;;;;;;;1.83;0.88;;;5.10;99.90;;;;;;5046086;28;20025;-61
2022/11/22 06:49:44;;;;;;;2.58;0.25;;;5.10;99.90;;;;;;5049225;28;20039;-63
2022/11/22 06:52:11;;;;;;;1.92;0.38;;;5.10;99.90;;;;;;5053566;28;20105;-64
2022/11/22 06:54:37;;;;;;;4.38;0.85;;;5.10;99.90;;;;;;5058165;28;20083;-63
2022/11/22 06:57:03;;;;;;;5.25;0.57;;;5.10;99.90;;;;;;5047421;28;20472;-63
2022/11/22 06:59:28;;;;;;;2.03;0.50;;;5.10;99.90;;;;;;5055088;28;20036;-66
2022/11/22 07:01:54;;;;;;;4.25;0.50;;;5.20;99.90;;;;;;5053523;28;20072;-62
2022/11/22 07:04:20;;;;;;;4.38;0.75;;;5.20;99.90;;;;;;5051871;28;20120;-62
2022/11/22 07:06:46;;;;;;;3.20;0.75;;;5.20;99.90;;;;;;5053181;28;20111;-61
2022/11/22 07:09:12;;;;;;;3.95;0.43;;;5.20;99.90;;;;;;5056502;28;20033;-62
2022/11/22 07:11:39;;;;;;;6.00;1.15;;;5.30;99.90;;;;;;5045828;28;20027;-63
2022/11/22 07:14:05;;;;;;;7.00;1.02;;;5.30;99.90;;;;;;5054066;28;20028;-62
2022/11/22 07:16:31;;;;;;;5.43;0.80;;;5.40;99.90;;;;;;5057216;28;20041;-61
2022/11/22 07:18:59;;;;;;;2.75;0.70;;;5.40;99.90;;;;;;5049687;28;20558;-61
2022/11/22 07:21:25;;;;;;;5.90;0.88;;;5.50;99.90;;;;;;5055979;28;20100;-61
2022/11/22 07:23:52;;;;;;;4.30;0.85;;;5.50;99.90;;;;;;5061572;28;20107;-61
2022/11/22 07:26:20;;;;;;;4.57;1.25;;;5.70;99.90;;;;;;5055359;28;20510;-61
2022/11/22 07:28:46;;;;;;;1.90;0.85;;;5.80;99.90;;;;;;5056505;28;20029;-61
2022/11/22 07:31:13;;;;;;;2.25;0.40;;;5.80;99.90;;;;;;5057416;28;20021;-61
2022/11/22 07:33:39;;;;;;;4.05;0.88;;;5.80;99.90;;;;;;5054952;28;20078;-61
2022/11/22 07:36:13;;;;;;;3.75;0.88;;;5.90;99.90;;;;;;5048221;28;20013;-61
2022/11/22 07:38:39;;;;;;;1.92;0.63;;;5.90;99.90;;;;;;5038179;28;20059;-62
2022/11/22 07:41:06;;;;;;;6.00;1.38;;;5.90;99.90;;;;;;5042008;28;20111;-62
2022/11/22 07:43:36;;;;;;;6.63;0.98;;;6.10;99.90;;;;;;5035470;28;20045;-62
2022/11/22 07:46:04;;;;;;;2.70;0.68;;;6.10;99.90;;;;;;5044587;28;22063;-62
2022/11/22 07:48:30;;;;;;;7.35;1.08;;;6.10;99.90;;;;;;5032715;28;20017;-61
2022/11/22 07:50:56;;;;;;;0.95;0.35;;;6.10;99.90;;;;;;5047902;28;20086;-62
2022/11/22 07:53:22;;;;;;;1.98;0.55;;;6.10;99.90;;;;;;5038515;28;20075;-62
2022/11/22 07:55:48;;;;;;;6.45;1.13;;;6.10;99.90;;;;;;5038230;28;20025;-62
2022/11/22 07:58:14;;;;;;;5.78;1.08;;;6.10;99.90;;;;;;5041319;28;20021;-63
2022/11/22 08:00:39;;;;;;;3.92;0.93;;;6.10;99.90;;;;;;5044987;28;20037;-63
2022/11/22 08:03:08;;;;;;;5.68;0.80;;;6.20;99.90;;;;;;5044600;28;20045;-62
2022/11/22 08:05:34;;;;;;;1.95;0.43;;;6.20;99.90;;;;;;5050836;28;20055;-62
2022/11/22 08:08:00;;;;;;;3.97;0.60;;;6.30;99.90;;;;;;5048678;28;20037;-63
2022/11/22 08:10:26;;;;;;;4.05;0.73;;;6.30;99.90;;;;;;5055380;28;20075;-61
2022/11/22 08:12:52;;;;;;;0.73;0.22;;;6.30;99.90;;;;;;5054081;28;20021;-61
2022/11/22 08:15:18;;;;;;;1.27;0.63;;;6.40;99.90;;;;;;5049005;28;20037;-61
2022/11/22 08:17:43;;;;;;;1.30;0.30;;;6.40;99.90;;;;;;5046068;28;20041;-61
2022/11/22 08:20:10;;;;;;;13.35;1.35;;;6.40;99.90;;;;;;5055813;28;20031;-61
2022/11/22 08:22:37;;;;;;;3.33;0.50;;;6.50;99.90;;;;;;5053916;28;20039;-64
2022/11/22 08:25:03;;;;;;;1.45;0.20;;;6.60;99.90;;;;;;5049450;28;20388;-61
2022/11/22 08:27:29;;;;;;;2.78;0.60;;;6.60;99.90;;;;;;5056103;28;20529;-65
2022/11/22 08:29:55;;;;;;;6.95;0.60;;;6.60;99.90;;;;;;5048518;28;20120;-62
2022/11/22 08:32:20;;;;;;;1.33;0.50;;;6.50;99.90;;;;;;5045872;28;20434;-62
2022/11/22 08:34:46;;;;;;;2.67;0.82;;;6.50;99.90;;;;;;5052553;28;20031;-62
2022/11/22 08:37:12;;;;;;;3.33;0.85;;;6.40;99.90;;;;;;5054849;28;20479;-62
2022/11/22 08:39:37;;;;;;;3.30;1.02;;;6.50;99.90;;;;;;5057144;28;20469;-62
2022/11/22 08:42:05;;;;;;;4.57;0.98;;;6.50;99.90;;;;;;5044819;28;20139;-62
2022/11/22 08:44:31;;;;;;;1.40;0.43;;;6.50;99.90;;;;;;5049697;28;20622;-61
2022/11/22 08:46:56;;;;;;;4.10;1.10;;;6.50;99.90;;;;;;5058737;28;20029;-62
2022/11/22 08:49:22;;;;;;;4.10;0.77;;;6.50;99.90;;;;;;5051414;28;20068;-62
2022/11/22 08:51:48;;;;;;;2.80;0.60;;;6.60;99.90;;;;;;5048294;28;20037;-62
2022/11/22 08:54:14;;;;;;;4.18;0.70;;;6.60;99.90;;;;;;5052384;28;20123;-62
2022/11/22 08:56:40;;;;;;;3.78;1.13;;;6.80;99.90;;;;;;5052510;28;20029;-62
2022/11/22 08:59:06;;;;;;;2.00;0.60;;;6.90;99.90;;;;;;5051398;28;20025;-62
2022/11/22 09:01:32;;;;;;;2.45;0.60;;;6.90;99.90;;;;;;5052824;28;20032;-62
2022/11/22 09:03:58;;;;;;;5.53;0.98;;;7.00;99.90;;;;;;5047730;28;20033;-63
2022/11/22 09:06:24;;;;;;;3.17;0.75;;;7.00;99.90;;;;;;5050775;28;20071;-63
2022/11/22 09:08:50;;;;;;;2.78;0.60;;;7.00;99.90;;;;;;5050494;28;20410;-62
2022/11/22 09:11:19;;;;;;;8.35;1.58;;;7.10;99.90;;;;;;5058087;28;20060;-62
2022/11/22 09:13:45;;;;;;;1.35;0.57;;;7.20;99.90;;;;;;5049779;28;20377;-62
2022/11/22 09:16:13;;;;;;;1.33;0.52;;;7.20;99.90;;;;;;5056859;28;20408;-62
2022/11/22 09:18:40;;;;;;;3.90;0.60;;;7.20;99.90;;;;;;5057942;28;20032;-62
2022/11/22 09:21:08;;;;;;;2.25;0.55;;;7.30;99.90;;;;;;5054553;28;20060;-62
2022/11/22 09:23:34;;;;;;;4.13;0.30;;;7.30;99.90;;;;;;5059063;28;20039;-62
2022/11/22 09:26:05;;;;;;;0.52;0.22;;;7.30;99.90;;;;;;5056260;28;20044;-63
2022/11/22 09:28:31;;;;;;;3.72;0.30;;;7.30;99.90;;;;;;5063459;28;20446;-62
2022/11/22 09:31:02;;;;;;;0.80;0.35;;;7.30;99.90;;;;;;5060239;28;20119;-62
2022/11/22 09:33:28;;;;;;;2.08;0.68;;;7.40;99.90;;;;;;5062797;28;20100;-62
2022/11/22 09:36:06;;;;;;;3.13;0.30;;;7.50;99.90;;;;;;5057733;28;20025;-62
2022/11/22 09:38:33;;;;;;;2.47;0.40;;;7.50;99.90;;;;;;5051577;28;20498;-62
2022/11/22 09:41:12;;;;;;;0.90;0.40;;;7.60;99.90;;;;;;5055877;28;20028;-63
2022/11/22 09:44:00;;;;;;;2.28;0.40;;;7.60;99.90;;;;;;5049883;28;20040;-62
2022/11/22 09:47:03;;;;;;;5.53;1.85;;;7.70;99.90;;;;;;5060203;28;20052;-62
2022/11/22 09:50:06;;;;;;;4.97;0.82;;;7.80;99.90;;;;;;5049090;28;20017;-62
2022/11/22 09:52:58;;;;;;;2.38;0.68;;;7.80;99.90;;;;;;5051365;28;20091;-62
2022/11/22 09:55:35;;;;;;;2.45;0.85;;;7.80;99.90;;;;;;5054707;28;20043;-62
2022/11/22 09:58:28;;;;;;;2.88;0.40;;;7.80;99.90;;;;;;5055667;28;20087;-62
2022/11/22 10:01:00;;;;;;;1.10;0.17;;;7.70;99.90;;;;;;5053609;28;20036;-63
2022/11/22 10:03:44;;;;;;;2.03;0.40;;;7.70;99.90;;;;;;5050950;28;20483;-62
2022/11/22 10:06:29;;;;;;;2.40;0.38;;;7.70;99.90;;;;;;5046351;28;20056;-62
2022/11/22 10:09:23;;;;;;;0.80;0.30;;;7.80;99.90;;;;;;5047445;28;20384;-62
2022/11/22 10:12:04;;;;;;;3.47;0.30;;;7.80;99.90;;;;;;5020307;28;20037;-62
2022/11/22 10:15:08;;;;;;;0.52;0.25;;;7.90;99.90;;;;;;5053258;28;20029;-61
2022/11/22 10:17:54;;;;;;;2.60;0.40;;;8.00;99.90;;;;;;5053386;28;20040;-62
2022/11/22 10:20:22;;;;;;;1.42;0.30;;;8.10;99.90;;;;;;5045694;28;20029;-62
2022/11/22 10:22:48;;;;;;;1.63;0.40;;;8.20;99.90;;;;;;5043323;28;20056;-61
2022/11/22 10:25:34;;;;;;;3.47;0.40;;;8.30;99.90;;;;;;5031175;28;20055;-61
2022/11/22 10:28:11;;;;;;;0.43;0.20;;;8.40;99.90;;;;;;5037060;28;20056;-61
2022/11/22 10:30:44;;;;;;;4.10;0.55;;;8.40;99.90;;;;;;5046240;28;20063;-60
2022/11/22 10:33:50;;;;;;;3.97;0.43;;;8.40;99.90;;;;;;5037806;28;20021;-61
2022/11/22 10:36:34;;;;;;;3.17;0.70;;;8.50;99.90;;;;;;5044695;28;21406;-62
2022/11/22 10:39:22;;;;;;;2.72;0.30;;;8.60;99.90;;;;;;5055148;28;20029;-63
2022/11/22 10:41:54;;;;;;;4.50;0.82;;;8.70;99.90;;;;;;5035421;28;20029;-63
2022/11/22 10:44:59;;;;;;;2.33;0.30;;;8.90;99.90;;;;;;5058688;28;20036;-62
2022/11/22 10:47:39;;;;;;;5.70;0.75;;;9.00;99.90;;;;;;5034866;28;20531;-62
2022/11/22 10:50:25;;;;;;;5.70;1.02;;;9.10;99.90;;;;;;5049440;28;20095;-62
2022/11/22 10:52:59;;;;;;;6.22;0.63;;;9.10;99.90;;;;;;5042699;28;20056;-62
2022/11/22 10:55:59;;;;;;;4.25;0.65;;;9.30;99.90;;;;;;5046580;28;20441;-61
2022/11/22 10:58:46;;;;;;;7.93;1.52;;;9.50;99.90;;;;;;5043719;28;20048;-62
2022/11/22 11:01:19;;;;;;;4.53;1.17;;;9.60;99.90;;;;;;5048277;28;20543;-61
2022/11/22 11:03:48;;;;;;;6.18;1.02;;;9.70;99.90;;;;;;5042188;28;20147;-62
2022/11/22 11:06:39;;;;;;;9.30;1.40;;;9.80;99.90;;;;;;5050330;28;20036;-62
2022/11/22 11:09:10;;;;;;;3.45;0.70;;;10.10;99.90;;;;;;5050259;28;20029;-63
2022/11/22 11:11:39;;;;;;;7.72;1.10;;;10.70;99.90;;;;;;5051603;28;20025;-61
2022/11/22 11:14:19;;;;;;;7.53;0.93;;;11.30;99.90;;;;;;5043669;28;20048;-62
2022/11/22 11:16:45;;;;;;;5.93;0.93;;;11.70;99.90;;;;;;5047084;28;20570;-63
2022/11/22 11:19:18;;;;;;;8.00;1.65;;;12.20;99.90;;;;;;5048436;28;20017;-63
2022/11/22 11:21:45;;;;;;;7.07;1.17;;;12.50;99.90;;;;;;5046600;28;20029;-63
2022/11/22 11:24:15;;;;;;;5.57;1.30;;;12.90;99.90;;;;;;5044834;28;20044;-64
2022/11/22 11:26:43;;;;;;;4.97;1.10;;;12.90;99.90;;;;;;5055772;28;20472;-63
2022/11/22 11:29:17;;;;;;;7.40;1.25;;;13.10;99.90;;;;;;5040033;28;20040;-63
2022/11/22 11:31:48;;;;;;;4.80;1.30;;;13.20;99.90;;;;;;5060818;28;20102;-63
2022/11/22 11:34:28;;;;;;;10.68;1.60;;;13.50;99.90;;;;;;5052762;28;20036;-61
2022/11/22 11:36:56;;;;;;;8.82;1.85;;;13.80;99.90;;;;;;5045048;28;20036;-62
2022/11/22 11:39:32;;;;;;;5.32;1.17;;;14.10;99.90;;;;;;5052962;28;20025;-61
2022/11/22 11:41:59;;;;;;;4.03;1.17;;;13.90;99.90;;;;;;5057538;28;20028;-62
2022/11/22 11:44:31;;;;;;;4.57;0.82;;;13.90;99.90;;;;;;5062615;28;20057;-63
2022/11/22 11:46:58;;;;;;;3.50;0.95;;;14.00;99.90;;;;;;5047988;28;20456;-62
2022/11/22 11:49:29;;;;;;;5.47;0.85;;;14.00;99.90;;;;;;5046261;28;20392;-62
2022/11/22 11:51:57;;;;;;;5.10;1.15;;;14.00;99.90;;;;;;5049587;28;20536;-62
2022/11/22 11:54:39;;;;;;;6.00;1.10;;;14.30;99.90;;;;;;5052721;28;20029;-62
2022/11/22 11:57:14;;;;;;;8.43;1.80;;;14.30;99.90;;;;;;5051821;28;20029;-63
2022/11/22 11:59:40;;;;;;;2.50;0.70;;;14.40;99.90;;;;;;5059575;28;20070;-62
2022/11/22 12:02:28;;;;;;;7.85;1.17;;;14.00;99.90;;;;;;5044530;28;20072;-62
2022/11/22 12:05:03;;;;;;;4.75;1.05;;;14.30;99.90;;;;;;5043884;28;20486;-61
2022/11/22 12:07:35;;;;;;;5.15;0.73;;;14.30;99.90;;;;;;5052067;28;20069;-62
2022/11/22 12:10:21;;;;;;;5.57;0.80;;;14.70;99.90;;;;;;5055725;28;20039;-63
2022/11/22 12:12:51;;;;;;;3.67;1.10;;;14.60;99.90;;;;;;5053887;28;20021;-61
2022/11/22 12:15:24;;;;;;;4.90;1.15;;;14.80;99.90;;;;;;5051073;28;20029;-61
2022/11/22 12:18:16;;;;;;;4.30;1.10;;;15.10;99.90;;;;;;5049304;28;20052;-62
2022/11/22 12:21:04;;;;;;;7.43;0.85;;;15.50;99.90;;;;;;5057470;28;20059;-63
2022/11/22 12:23:39;;;;;;;4.53;1.23;;;15.50;99.90;;;;;;5056255;28;20449;-63
2022/11/22 12:26:05;;;;;;;2.88;0.80;;;15.30;99.90;;;;;;5056673;28;20021;-62
2022/11/22 12:28:31;;;;;;;3.20;0.77;;;15.70;99.90;;;;;;5057097;28;20032;-62
2022/11/22 12:31:02;;;;;;;4.15;0.95;;;15.60;99.90;;;;;;5051327;28;20473;-62
2022/11/22 12:33:42;;;;;;;5.82;1.17;;;15.20;99.90;;;;;;5058514;28;20029;-62
2022/11/22 12:36:46;;;;;;;3.67;0.80;;;15.10;99.90;;;;;;5047300;28;20039;-62
2022/11/22 12:39:22;;;;;;;4.65;1.27;;;15.70;99.90;;;;;;5049316;28;20036;-64
2022/11/22 12:41:51;;;;;;;3.03;1.10;;;16.20;99.90;;;;;;5050979;28;20043;-63
2022/11/22 12:44:19;;;;;;;4.30;1.20;;;16.60;99.90;;;;;;5071061;28;20050;-63
2022/11/22 12:47:00;;;;;;;7.55;1.30;;;16.90;99.90;;;;;;5054074;28;20021;-62
2022/11/22 12:49:50;;;;;;;3.92;1.00;;;16.90;99.90;;;;;;5051852;28;20056;-63
2022/11/22 12:52:33;;;;;;;5.57;1.40;;;16.90;99.90;;;;;;5048100;28;20064;-62
2022/11/22 12:55:08;;;;;;;3.83;1.10;;;16.70;99.90;;;;;;5051008;28;20078;-62
2022/11/22 12:57:39;;;;;;;5.55;1.08;;;16.30;99.90;;;;;;5053315;28;20044;-63
2022/11/22 13:00:16;;;;;;;7.10;1.02;;;15.30;99.90;;;;;;5058612;28;20475;-62
2022/11/22 13:02:57;;;;;;;6.65;1.13;;;14.90;99.90;;;;;;5053445;28;20041;-62
2022/11/22 13:05:35;;;;;;;3.30;0.90;;;14.70;99.90;;;;;;5054998;28;20076;-62
2022/11/22 13:08:16;;;;;;;5.05;1.10;;;14.80;99.90;;;;;;5050381;28;20029;-62
2022/11/22 13:10:59;;;;;;;5.50;0.80;;;14.70;99.90;;;;;;5052522;28;20094;-63
2022/11/22 13:13:36;;;;;;;5.25;0.95;;;14.40;99.90;;;;;;5049799;28;20028;-62
2022/11/22 13:16:07;;;;;;;5.38;1.58;;;14.30;99.90;;;;;;5045090;28;20576;-62
2022/11/22 13:18:37;;;;;;;3.40;1.10;;;14.10;99.90;;;;;;5054215;28;20029;-62
2022/11/22 13:21:37;;;;;;;3.53;1.15;;;13.80;99.90;;;;;;5053966;28;20341;-61
2022/11/22 13:24:28;;;;;;;4.00;0.85;;;13.40;99.90;;;;;;5054594;28;20496;-61